sensor_id;sensor_type;location;lat;lon;timestamp;temperature;humidity
22738;DHT22;11536;50.860;4.286;2023-04-01T00:02:18;11.00;99.90
22738;DHT22;11536;50.860;4.286;2023-04-01T00:04:43;10.90;99.90
22738;DHT22;11536;50.860;4.286;2023-04-01T00:07:09;10.90;99.90
22738;DHT22;11536;50.860;4.286;2023-04-01T00:09:36;11.00;99.90
22738;DHT22;11536;50.860;4.286;2023-04-01T00:12:02;10.90;99.90
22738;DHT22;11536;50.860;4.286;2023-04-01T00:14:27;10.90;99.90
22738;DHT22;11536;50.860;4.286;2023-04-01T00:16:54;10.90;99.90
22738;DHT22;11536;50.860;4.286;2023-04-01T00:19:19;10.90;99.90
22738;DHT22;11536;50.860;4.286;2023-04-01T00:21:45;10.90;99.90
22738;DHT22;11536;50.860;4.286;2023-04-01T00:24:11;10.90;99.90
22738;DHT22;11536;50.860;4.286;2023-04-01T00:26:37;10.90;99.90
22738;DHT22;11536;50.860;4.286;2023-04-01T00:29:03;10.90;99.90
22738;DHT22;11536;50.860;4.286;2023-04-01T00:31:28;11.00;99.90
22738;DHT22;11536;50.860;4.286;2023-04-01T00:33:55;10.90;99.90
22738;DHT22;11536;50.860;4.286;2023-04-01T00:36:21;10.90;99.90
22738;DHT22;11536;50.860;4.286;2023-04-01T00:38:47;10.90;99.90
22738;DHT22;11536;50.860;4.286;2023-04-01T00:41:13;10.90;99.90
22738;DHT22;11536;50.860;4.286;2023-04-01T00:43:42;10.90;99.90
22738;DHT22;11536;50.860;4.286;2023-04-01T00:46:08;10.90;99.90
22738;DHT22;11536;50.860;4.286;2023-04-01T00:48:39;10.90;99.90
22738;DHT22;11536;50.860;4.286;2023-04-01T00:51:17;10.90;99.90
22738;DHT22;11536;50.860;4.286;2023-04-01T00:53:47;10.90;99.90
22738;DHT22;11536;50.860;4.286;2023-04-01T00:56:17;10.90;99.90
22738;DHT22;11536;50.860;4.286;2023-04-01T00:58:47;10.90;99.90
22738;DHT22;11536;50.860;4.286;2023-04-01T01:01:15;10.90;99.90
22738;DHT22;11536;50.860;4.286;2023-04-01T01:03:40;10.90;99.90
22738;DHT22;11536;50.860;4.286;2023-04-01T01:06:39;11.00;99.90
22738;DHT22;11536;50.860;4.286;2023-04-01T01:09:38;10.90;99.90
22738;DHT22;11536;50.860;4.286;2023-04-01T01:12:19;10.90;99.90
22738;DHT22;11536;50.860;4.286;2023-04-01T01:15:16;10.90;99.90
22738;DHT22;11536;50.860;4.286;2023-04-01T01:37:20;10.90;99.90
22738;DHT22;11536;50.860;4.286;2023-04-01T01:39:51;10.90;99.90
22738;DHT22;11536;50.860;4.286;2023-04-01T01:42:18;10.90;99.90
22738;DHT22;11536;50.860;4.286;2023-04-01T01:44:46;10.90;99.90
22738;DHT22;11536;50.860;4.286;2023-04-01T01:47:13;10.90;99.90
22738;DHT22;11536;50.860;4.286;2023-04-01T01:49:41;10.90;99.90
22738;DHT22;11536;50.860;4.286;2023-04-01T01:52:07;10.90;99.90
22738;DHT22;11536;50.860;4.286;2023-04-01T01:54:33;10.90;99.90
22738;DHT22;11536;50.860;4.286;2023-04-01T01:57:09;10.90;99.90
22738;DHT22;11536;50.860;4.286;2023-04-01T01:59:38;10.90;99.90
22738;DHT22;11536;50.860;4.286;2023-04-01T02:02:05;10.90;99.90
22738;DHT22;11536;50.860;4.286;2023-04-01T02:04:36;10.90;99.90
22738;DHT22;11536;50.860;4.286;2023-04-01T02:07:08;10.80;99.90
22738;DHT22;11536;50.860;4.286;2023-04-01T02:09:36;10.80;99.90
22738;DHT22;11536;50.860;4.286;2023-04-01T02:12:08;10.90;99.90
22738;DHT22;11536;50.860;4.286;2023-04-01T02:14:53;10.80;99.90
22738;DHT22;11536;50.860;4.286;2023-04-01T02:17:30;10.70;99.90
22738;DHT22;11536;50.860;4.286;2023-04-01T02:20:00;10.80;99.90
22738;DHT22;11536;50.860;4.286;2023-04-01T02:22:29;10.70;99.90
22738;DHT22;11536;50.860;4.286;2023-04-01T02:25:02;10.70;99.90
22738;DHT22;11536;50.860;4.286;2023-04-01T02:27:28;10.70;99.90
22738;DHT22;11536;50.860;4.286;2023-04-01T02:29:56;10.70;99.90
22738;DHT22;11536;50.860;4.286;2023-04-01T02:32:22;10.70;99.90
22738;DHT22;11536;50.860;4.286;2023-04-01T02:34:48;10.70;99.90
22738;DHT22;11536;50.860;4.286;2023-04-01T02:37:14;10.70;99.90
22738;DHT22;11536;50.860;4.286;2023-04-01T02:39:40;10.70;99.90
22738;DHT22;11536;50.860;4.286;2023-04-01T02:42:08;10.60;99.90
22738;DHT22;11536;50.860;4.286;2023-04-01T02:44:33;10.60;99.90
22738;DHT22;11536;50.860;4.286;2023-04-01T02:46:59;10.70;99.90
22738;DHT22;11536;50.860;4.286;2023-04-01T02:49:25;10.60;99.90
22738;DHT22;11536;50.860;4.286;2023-04-01T02:51:50;10.60;99.90
22738;DHT22;11536;50.860;4.286;2023-04-01T02:54:17;10.60;99.90
22738;DHT22;11536;50.860;4.286;2023-04-01T02:56:43;10.60;99.90
22738;DHT22;11536;50.860;4.286;2023-04-01T02:59:09;10.70;99.90
22738;DHT22;11536;50.860;4.286;2023-04-01T03:01:34;10.70;99.90
22738;DHT22;11536;50.860;4.286;2023-04-01T03:04:00;10.60;99.90
22738;DHT22;11536;50.860;4.286;2023-04-01T03:06:26;10.60;99.90
22738;DHT22;11536;50.860;4.286;2023-04-01T03:08:51;10.60;99.90
22738;DHT22;11536;50.860;4.286;2023-04-01T03:11:17;10.60;99.90
22738;DHT22;11536;50.860;4.286;2023-04-01T03:13:42;10.60;99.90
22738;DHT22;11536;50.860;4.286;2023-04-01T03:16:08;10.60;99.90
22738;DHT22;11536;50.860;4.286;2023-04-01T03:18:33;10.60;99.90
22738;DHT22;11536;50.860;4.286;2023-04-01T03:21:17;10.60;99.90
22738;DHT22;11536;50.860;4.286;2023-04-01T03:23:43;10.60;99.90
22738;DHT22;11536;50.860;4.286;2023-04-01T03:26:09;10.60;99.90
22738;DHT22;11536;50.860;4.286;2023-04-01T03:28:34;10.60;99.90
22738;DHT22;11536;50.860;4.286;2023-04-01T03:31:00;10.60;99.90
22738;DHT22;11536;50.860;4.286;2023-04-01T03:33:26;10.60;99.90
22738;DHT22;11536;50.860;4.286;2023-04-01T03:35:51;10.70;99.90
22738;DHT22;11536;50.860;4.286;2023-04-01T03:38:18;10.60;99.90
22738;DHT22;11536;50.860;4.286;2023-04-01T03:40:44;10.60;99.90
22738;DHT22;11536;50.860;4.286;2023-04-01T03:43:09;10.60;99.90
22738;DHT22;11536;50.860;4.286;2023-04-01T03:45:43;10.50;99.90
22738;DHT22;11536;50.860;4.286;2023-04-01T03:48:08;10.60;99.90
22738;DHT22;11536;50.860;4.286;2023-04-01T03:50:34;10.60;99.90
22738;DHT22;11536;50.860;4.286;2023-04-01T03:53:00;10.60;99.90
22738;DHT22;11536;50.860;4.286;2023-04-01T03:55:26;10.60;99.90
22738;DHT22;11536;50.860;4.286;2023-04-01T03:57:51;10.60;99.90
22738;DHT22;11536;50.860;4.286;2023-04-01T04:00:17;10.60;99.90
22738;DHT22;11536;50.860;4.286;2023-04-01T04:02:43;10.60;99.90
22738;DHT22;11536;50.860;4.286;2023-04-01T04:05:08;10.60;99.90
22738;DHT22;11536;50.860;4.286;2023-04-01T04:07:35;10.60;99.90
22738;DHT22;11536;50.860;4.286;2023-04-01T04:10:00;10.60;99.90
22738;DHT22;11536;50.860;4.286;2023-04-01T04:12:26;10.60;99.90
22738;DHT22;11536;50.860;4.286;2023-04-01T04:14:52;10.50;99.90
22738;DHT22;11536;50.860;4.286;2023-04-01T04:17:17;10.50;99.90
22738;DHT22;11536;50.860;4.286;2023-04-01T04:19:43;10.60;99.90
22738;DHT22;11536;50.860;4.286;2023-04-01T04:22:09;10.50;99.90
22738;DHT22;11536;50.860;4.286;2023-04-01T04:24:35;10.50;99.90
22738;DHT22;11536;50.860;4.286;2023-04-01T04:27:01;10.50;99.90
22738;DHT22;11536;50.860;4.286;2023-04-01T04:29:27;10.50;99.90
22738;DHT22;11536;50.860;4.286;2023-04-01T04:31:52;10.50;99.90
22738;DHT22;11536;50.860;4.286;2023-04-01T04:34:18;10.50;99.90
22738;DHT22;11536;50.860;4.286;2023-04-01T04:36:44;10.50;99.90
22738;DHT22;11536;50.860;4.286;2023-04-01T04:39:10;10.50;99.90
22738;DHT22;11536;50.860;4.286;2023-04-01T04:41:37;10.50;99.90
22738;DHT22;11536;50.860;4.286;2023-04-01T04:44:03;10.50;99.90
22738;DHT22;11536;50.860;4.286;2023-04-01T04:46:29;10.50;99.90
22738;DHT22;11536;50.860;4.286;2023-04-01T04:48:55;10.50;99.90
22738;DHT22;11536;50.860;4.286;2023-04-01T04:51:21;10.50;99.90
22738;DHT22;11536;50.860;4.286;2023-04-01T04:53:47;10.50;99.90
22738;DHT22;11536;50.860;4.286;2023-04-01T04:56:16;10.50;99.90
22738;DHT22;11536;50.860;4.286;2023-04-01T04:58:42;10.50;99.90
22738;DHT22;11536;50.860;4.286;2023-04-01T05:01:10;10.50;99.90
22738;DHT22;11536;50.860;4.286;2023-04-01T05:03:36;10.50;99.90
22738;DHT22;11536;50.860;4.286;2023-04-01T05:06:02;10.40;99.90
22738;DHT22;11536;50.860;4.286;2023-04-01T05:08:28;10.40;99.90
22738;DHT22;11536;50.860;4.286;2023-04-01T05:10:54;10.50;99.90
22738;DHT22;11536;50.860;4.286;2023-04-01T05:13:19;10.50;99.90
22738;DHT22;11536;50.860;4.286;2023-04-01T05:15:45;10.50;99.90
22738;DHT22;11536;50.860;4.286;2023-04-01T05:18:11;10.40;99.90
22738;DHT22;11536;50.860;4.286;2023-04-01T05:20:36;10.50;99.90
22738;DHT22;11536;50.860;4.286;2023-04-01T05:23:02;10.50;99.90
22738;DHT22;11536;50.860;4.286;2023-04-01T05:25:28;10.50;99.90
22738;DHT22;11536;50.860;4.286;2023-04-01T05:27:53;10.50;99.90
22738;DHT22;11536;50.860;4.286;2023-04-01T05:30:19;10.50;99.90
22738;DHT22;11536;50.860;4.286;2023-04-01T05:32:45;10.50;99.90
22738;DHT22;11536;50.860;4.286;2023-04-01T05:35:11;10.40;99.90
22738;DHT22;11536;50.860;4.286;2023-04-01T05:37:37;10.40;99.90
22738;DHT22;11536;50.860;4.286;2023-04-01T05:40:03;10.40;99.90
22738;DHT22;11536;50.860;4.286;2023-04-01T05:42:29;10.40;99.90
22738;DHT22;11536;50.860;4.286;2023-04-01T05:44:55;10.40;99.90
22738;DHT22;11536;50.860;4.286;2023-04-01T05:47:21;10.40;99.90
22738;DHT22;11536;50.860;4.286;2023-04-01T05:49:47;10.40;99.90
22738;DHT22;11536;50.860;4.286;2023-04-01T05:52:13;10.40;99.90
22738;DHT22;11536;50.860;4.286;2023-04-01T05:54:39;10.40;99.90
22738;DHT22;11536;50.860;4.286;2023-04-01T05:57:04;10.40;99.90
22738;DHT22;11536;50.860;4.286;2023-04-01T05:59:30;10.40;99.90
22738;DHT22;11536;50.860;4.286;2023-04-01T06:01:57;10.40;99.90
22738;DHT22;11536;50.860;4.286;2023-04-01T06:04:23;10.40;99.90
22738;DHT22;11536;50.860;4.286;2023-04-01T06:06:49;10.40;99.90
22738;DHT22;11536;50.860;4.286;2023-04-01T06:09:17;10.40;99.90
22738;DHT22;11536;50.860;4.286;2023-04-01T06:31:38;10.30;99.90
22738;DHT22;11536;50.860;4.286;2023-04-01T06:37:23;10.30;99.90
22738;DHT22;11536;50.860;4.286;2023-04-01T06:42:51;10.30;99.90
22738;DHT22;11536;50.860;4.286;2023-04-01T06:45:49;10.30;99.90
22738;DHT22;11536;50.860;4.286;2023-04-01T06:48:39;10.30;99.90
22738;DHT22;11536;50.860;4.286;2023-04-01T06:51:21;10.40;99.90
22738;DHT22;11536;50.860;4.286;2023-04-01T06:56:28;10.30;99.90
22738;DHT22;11536;50.860;4.286;2023-04-01T06:59:15;10.30;99.90
22738;DHT22;11536;50.860;4.286;2023-04-01T07:02:15;10.30;99.90
22738;DHT22;11536;50.860;4.286;2023-04-01T07:04:46;10.40;99.90
22738;DHT22;11536;50.860;4.286;2023-04-01T07:07:15;10.40;99.90
22738;DHT22;11536;50.860;4.286;2023-04-01T07:09:51;10.40;99.90
22738;DHT22;11536;50.860;4.286;2023-04-01T07:17:43;10.40;99.90
22738;DHT22;11536;50.860;4.286;2023-04-01T07:22:49;10.40;99.90
22738;DHT22;11536;50.860;4.286;2023-04-01T07:25:29;10.40;99.90
22738;DHT22;11536;50.860;4.286;2023-04-01T07:28:13;10.50;99.90
22738;DHT22;11536;50.860;4.286;2023-04-01T07:39:28;10.40;99.90
22738;DHT22;11536;50.860;4.286;2023-04-01T07:44:56;10.40;99.90
22738;DHT22;11536;50.860;4.286;2023-04-01T07:48:06;10.40;99.90
22738;DHT22;11536;50.860;4.286;2023-04-01T07:53:38;10.40;99.90
22738;DHT22;11536;50.860;4.286;2023-04-01T08:01:44;10.40;99.90
22738;DHT22;11536;50.860;4.286;2023-04-01T08:07:20;10.40;99.90
22738;DHT22;11536;50.860;4.286;2023-04-01T08:09:59;10.40;99.90
22738;DHT22;11536;50.860;4.286;2023-04-01T08:12:53;10.40;99.90
22738;DHT22;11536;50.860;4.286;2023-04-01T08:15:39;10.40;99.90
22738;DHT22;11536;50.860;4.286;2023-04-01T08:21:02;10.40;99.90
22738;DHT22;11536;50.860;4.286;2023-04-01T08:23:31;10.30;99.90
22738;DHT22;11536;50.860;4.286;2023-04-01T08:26:12;10.30;99.90
22738;DHT22;11536;50.860;4.286;2023-04-01T08:28:57;10.30;99.90
22738;DHT22;11536;50.860;4.286;2023-04-01T08:34:16;10.40;99.90
22738;DHT22;11536;50.860;4.286;2023-04-01T08:36:48;10.40;99.90
22738;DHT22;11536;50.860;4.286;2023-04-01T08:39:20;10.40;99.90
22738;DHT22;11536;50.860;4.286;2023-04-01T08:50:20;10.50;99.90
22738;DHT22;11536;50.860;4.286;2023-04-01T08:52:58;10.60;99.90
22738;DHT22;11536;50.860;4.286;2023-04-01T08:55:51;10.60;99.90
22738;DHT22;11536;50.860;4.286;2023-04-01T08:58:32;10.60;99.90
22738;DHT22;11536;50.860;4.286;2023-04-01T09:04:19;10.60;99.90
22738;DHT22;11536;50.860;4.286;2023-04-01T09:06:52;10.60;99.90
22738;DHT22;11536;50.860;4.286;2023-04-01T09:45:37;10.80;99.90
22738;DHT22;11536;50.860;4.286;2023-04-01T09:50:33;10.80;99.90
22738;DHT22;11536;50.860;4.286;2023-04-01T10:24:03;10.90;99.90
22738;DHT22;11536;50.860;4.286;2023-04-01T10:48:51;11.00;99.90
22738;DHT22;11536;50.860;4.286;2023-04-01T10:56:59;11.20;99.90
22738;DHT22;11536;50.860;4.286;2023-04-01T11:24:33;11.20;99.90
22738;DHT22;11536;50.860;4.286;2023-04-01T11:32:25;11.30;99.90
22738;DHT22;11536;50.860;4.286;2023-04-01T11:37:37;11.30;99.90
22738;DHT22;11536;50.860;4.286;2023-04-01T11:40:27;11.30;99.90
22738;DHT22;11536;50.860;4.286;2023-04-01T11:43:14;11.30;99.90
22738;DHT22;11536;50.860;4.286;2023-04-01T11:45:46;11.30;99.90
22738;DHT22;11536;50.860;4.286;2023-04-01T11:48:40;11.30;99.90
22738;DHT22;11536;50.860;4.286;2023-04-01T11:54:34;11.40;99.90
22738;DHT22;11536;50.860;4.286;2023-04-01T12:06:19;11.30;99.90
22738;DHT22;11536;50.860;4.286;2023-04-01T12:20:01;11.20;99.90
22738;DHT22;11536;50.860;4.286;2023-04-01T12:22:59;11.20;99.90
22738;DHT22;11536;50.860;4.286;2023-04-01T12:28:25;11.20;99.90
22738;DHT22;11536;50.860;4.286;2023-04-01T12:37:03;11.20;99.90
22738;DHT22;11536;50.860;4.286;2023-04-01T12:39:54;11.10;99.90
22738;DHT22;11536;50.860;4.286;2023-04-01T12:45:29;11.20;99.90
22738;DHT22;11536;50.860;4.286;2023-04-01T13:07:50;11.10;99.90
22738;DHT22;11536;50.860;4.286;2023-04-01T13:10:30;11.10;99.90
22738;DHT22;11536;50.860;4.286;2023-04-01T13:12:59;11.10;99.90
22738;DHT22;11536;50.860;4.286;2023-04-01T13:15:35;11.00;99.90
22738;DHT22;11536;50.860;4.286;2023-04-01T13:23:48;11.10;99.90
22738;DHT22;11536;50.860;4.286;2023-04-01T13:29:15;11.00;99.90
22738;DHT22;11536;50.860;4.286;2023-04-01T13:31:59;11.00;99.90
22738;DHT22;11536;50.860;4.286;2023-04-01T13:42:40;11.00;99.90
22738;DHT22;11536;50.860;4.286;2023-04-01T13:53:32;11.00;99.90
22738;DHT22;11536;50.860;4.286;2023-04-01T14:02:08;11.00;99.90
22738;DHT22;11536;50.860;4.286;2023-04-01T14:04:58;11.00;99.90
22738;DHT22;11536;50.860;4.286;2023-04-01T14:08:10;11.00;99.90
22738;DHT22;11536;50.860;4.286;2023-04-01T14:10:53;11.00;99.90
22738;DHT22;11536;50.860;4.286;2023-04-01T14:16:14;11.10;99.90
22738;DHT22;11536;50.860;4.286;2023-04-01T14:35:34;11.20;99.90
22738;DHT22;11536;50.860;4.286;2023-04-01T14:41:21;11.10;99.90
22738;DHT22;11536;50.860;4.286;2023-04-01T14:49:39;11.00;99.90
22738;DHT22;11536;50.860;4.286;2023-04-01T14:52:30;11.00;99.90
22738;DHT22;11536;50.860;4.286;2023-04-01T14:54:57;11.00;99.90
22738;DHT22;11536;50.860;4.286;2023-04-01T14:57:27;11.00;99.90
22738;DHT22;11536;50.860;4.286;2023-04-01T15:00:16;11.00;99.90
22738;DHT22;11536;50.860;4.286;2023-04-01T15:03:02;10.90;99.90
22738;DHT22;11536;50.860;4.286;2023-04-01T15:05:56;10.90;99.90
22738;DHT22;11536;50.860;4.286;2023-04-01T15:19:46;10.80;99.90
22738;DHT22;11536;50.860;4.286;2023-04-01T15:25:33;10.80;99.90
22738;DHT22;11536;50.860;4.286;2023-04-01T15:37:06;10.70;99.90
22738;DHT22;11536;50.860;4.286;2023-04-01T15:49:03;10.60;99.90
22738;DHT22;11536;50.860;4.286;2023-04-01T16:02:52;10.70;99.90
22738;DHT22;11536;50.860;4.286;2023-04-01T16:19:02;10.60;99.90
22738;DHT22;11536;50.860;4.286;2023-04-01T16:21:58;10.60;99.90
22738;DHT22;11536;50.860;4.286;2023-04-01T16:30:23;10.60;99.90
22738;DHT22;11536;50.860;4.286;2023-04-01T16:33:03;10.60;99.90
22738;DHT22;11536;50.860;4.286;2023-04-01T16:43:42;10.60;99.90
22738;DHT22;11536;50.860;4.286;2023-04-01T16:46:40;10.60;99.90
22738;DHT22;11536;50.860;4.286;2023-04-01T16:54:35;10.50;99.90
22738;DHT22;11536;50.860;4.286;2023-04-01T17:00:09;10.50;99.90
22738;DHT22;11536;50.860;4.286;2023-04-01T17:05:52;10.50;99.90
22738;DHT22;11536;50.860;4.286;2023-04-01T17:08:30;10.50;99.90
22738;DHT22;11536;50.860;4.286;2023-04-01T17:17:13;10.50;99.90
22738;DHT22;11536;50.860;4.286;2023-04-01T17:41:49;10.70;99.90
22738;DHT22;11536;50.860;4.286;2023-04-01T17:52:31;10.50;99.90
22738;DHT22;11536;50.860;4.286;2023-04-01T18:11:00;10.50;99.90
22738;DHT22;11536;50.860;4.286;2023-04-01T18:16:37;10.50;99.90
22738;DHT22;11536;50.860;4.286;2023-04-01T18:22:24;10.50;99.90
22738;DHT22;11536;50.860;4.286;2023-04-01T18:25:04;10.50;99.90
22738;DHT22;11536;50.860;4.286;2023-04-01T18:27:47;10.40;99.90
22738;DHT22;11536;50.860;4.286;2023-04-01T18:32:57;10.50;99.90
22738;DHT22;11536;50.860;4.286;2023-04-01T18:35:47;10.50;99.90
22738;DHT22;11536;50.860;4.286;2023-04-01T18:38:23;10.40;99.90
22738;DHT22;11536;50.860;4.286;2023-04-01T18:46:41;10.40;99.90
22738;DHT22;11536;50.860;4.286;2023-04-01T18:57:50;10.50;99.90
22738;DHT22;11536;50.860;4.286;2023-04-01T19:05:34;10.40;99.90
22738;DHT22;11536;50.860;4.286;2023-04-01T19:13:50;10.30;99.90
22738;DHT22;11536;50.860;4.286;2023-04-01T19:16:26;10.30;99.90
22738;DHT22;11536;50.860;4.286;2023-04-01T19:19:29;10.20;99.90
22738;DHT22;11536;50.860;4.286;2023-04-01T19:27:45;10.30;99.90
22738;DHT22;11536;50.860;4.286;2023-04-01T19:30:36;10.20;99.90
22738;DHT22;11536;50.860;4.286;2023-04-01T19:33:28;10.20;99.90
22738;DHT22;11536;50.860;4.286;2023-04-01T19:38:43;10.20;99.90
22738;DHT22;11536;50.860;4.286;2023-04-01T19:41:36;10.20;99.90
22738;DHT22;11536;50.860;4.286;2023-04-01T19:44:29;10.10;99.90
22738;DHT22;11536;50.860;4.286;2023-04-01T19:52:46;10.10;99.90
22738;DHT22;11536;50.860;4.286;2023-04-01T19:55:40;10.10;99.90
22738;DHT22;11536;50.860;4.286;2023-04-01T19:58:24;10.00;99.90
22738;DHT22;11536;50.860;4.286;2023-04-01T20:00:52;10.00;99.90
22738;DHT22;11536;50.860;4.286;2023-04-01T20:11:35;10.00;99.90
22738;DHT22;11536;50.860;4.286;2023-04-01T20:14:40;10.00;99.90
22738;DHT22;11536;50.860;4.286;2023-04-01T20:17:49;10.00;99.90
22738;DHT22;11536;50.860;4.286;2023-04-01T20:25:06;10.00;99.90
22738;DHT22;11536;50.860;4.286;2023-04-01T20:27:43;10.00;99.90
22738;DHT22;11536;50.860;4.286;2023-04-01T20:33:47;10.00;99.90
22738;DHT22;11536;50.860;4.286;2023-04-01T20:36:36;10.00;99.90
22738;DHT22;11536;50.860;4.286;2023-04-01T20:39:16;10.10;99.90
22738;DHT22;11536;50.860;4.286;2023-04-01T20:41:59;10.10;99.90
22738;DHT22;11536;50.860;4.286;2023-04-01T20:44:54;10.10;99.90
22738;DHT22;11536;50.860;4.286;2023-04-01T20:50:19;10.10;99.90
22738;DHT22;11536;50.860;4.286;2023-04-01T20:52:56;10.10;99.90
22738;DHT22;11536;50.860;4.286;2023-04-01T20:58:41;10.00;99.90
22738;DHT22;11536;50.860;4.286;2023-04-01T21:06:51;10.10;99.90
22738;DHT22;11536;50.860;4.286;2023-04-01T21:15:11;10.10;99.90
22738;DHT22;11536;50.860;4.286;2023-04-01T21:18:03;10.10;99.90
22738;DHT22;11536;50.860;4.286;2023-04-01T21:23:40;10.10;99.90
22738;DHT22;11536;50.860;4.286;2023-04-01T21:39:41;10.20;99.90
22738;DHT22;11536;50.860;4.286;2023-04-01T21:45:01;10.20;99.90
22738;DHT22;11536;50.860;4.286;2023-04-01T21:47:47;10.10;99.90
22738;DHT22;11536;50.860;4.286;2023-04-01T21:56:25;10.20;99.90
22738;DHT22;11536;50.860;4.286;2023-04-01T22:05:02;10.20;99.90
22738;DHT22;11536;50.860;4.286;2023-04-01T22:10:29;10.20;99.90
22738;DHT22;11536;50.860;4.286;2023-04-01T22:13:16;10.20;99.90
22738;DHT22;11536;50.860;4.286;2023-04-01T22:18:41;10.20;99.90
22738;DHT22;11536;50.860;4.286;2023-04-01T22:26:32;10.20;99.90
22738;DHT22;11536;50.860;4.286;2023-04-01T22:37:09;10.30;99.90
22738;DHT22;11536;50.860;4.286;2023-04-01T22:45:32;10.30;99.90
22738;DHT22;11536;50.860;4.286;2023-04-01T22:51:42;10.20;99.90
22738;DHT22;11536;50.860;4.286;2023-04-01T22:56:30;10.30;99.90
22738;DHT22;11536;50.860;4.286;2023-04-01T22:59:06;10.30;99.90
22738;DHT22;11536;50.860;4.286;2023-04-01T23:01:38;10.30;99.90
22738;DHT22;11536;50.860;4.286;2023-04-01T23:04:05;10.30;99.90
22738;DHT22;11536;50.860;4.286;2023-04-01T23:06:38;10.40;99.90
22738;DHT22;11536;50.860;4.286;2023-04-01T23:31:00;10.40;99.90
22738;DHT22;11536;50.860;4.286;2023-04-01T23:33:29;10.30;99.90
22738;DHT22;11536;50.860;4.286;2023-04-01T23:36:13;10.30;99.90
22738;DHT22;11536;50.860;4.286;2023-04-01T23:38:47;10.30;99.90
22738;DHT22;11536;50.860;4.286;2023-04-01T23:41:29;10.30;99.90
22738;DHT22;11536;50.860;4.286;2023-04-01T23:44:11;10.30;99.90
22738;DHT22;11536;50.860;4.286;2023-04-01T23:46:40;10.30;99.90
22738;DHT22;11536;50.860;4.286;2023-04-01T23:49:14;10.30;99.90
22738;DHT22;11536;50.860;4.286;2023-04-01T23:51:54;10.20;99.90
22738;DHT22;11536;50.860;4.286;2023-04-01T23:54:30;10.20;99.90
22738;DHT22;11536;50.860;4.286;2023-04-01T23:56:57;10.10;99.90
22738;DHT22;11536;50.860;4.286;2023-04-01T23:59:32;10.10;99.90
